sensor_id;sensor_type;location;lat;lon;timestamp;temperature;humidity
19050;DHT22;9657;45.940;12.840;2022-10-04T14:31:20;20.40;64.00
19050;DHT22;9657;45.940;12.840;2022-10-04T14:37:22;20.40;64.10
19050;DHT22;9657;45.940;12.840;2022-10-04T14:40:16;20.40;64.10
19050;DHT22;9657;45.940;12.840;2022-10-04T14:42:55;20.50;64.10
19050;DHT22;9657;45.940;12.840;2022-10-04T14:45:40;20.40;64.10
19050;DHT22;9657;45.940;12.840;2022-10-04T14:48:22;20.40;64.10
19050;DHT22;9657;45.940;12.840;2022-10-04T14:51:04;20.50;64.20
19050;DHT22;9657;45.940;12.840;2022-10-04T14:53:46;20.50;64.20
19050;DHT22;9657;45.940;12.840;2022-10-04T14:56:53;20.40;64.20
19050;DHT22;9657;45.940;12.840;2022-10-04T14:59:38;20.50;64.20
19050;DHT22;9657;45.940;12.840;2022-10-04T15:02:42;20.50;64.20
19050;DHT22;9657;45.940;12.840;2022-10-04T15:05:35;20.50;64.20
19050;DHT22;9657;45.940;12.840;2022-10-04T15:08:49;20.50;64.30
19050;DHT22;9657;45.940;12.840;2022-10-04T15:11:40;20.50;64.20
19050;DHT22;9657;45.940;12.840;2022-10-04T15:14:35;20.40;64.20
19050;DHT22;9657;45.940;12.840;2022-10-04T15:17:07;20.50;64.20
19050;DHT22;9657;45.940;12.840;2022-10-04T15:19:57;20.50;64.20
19050;DHT22;9657;45.940;12.840;2022-10-04T15:22:27;20.50;64.30
19050;DHT22;9657;45.940;12.840;2022-10-04T15:24:56;20.50;64.20
19050;DHT22;9657;45.940;12.840;2022-10-04T15:27:51;20.50;64.20
19050;DHT22;9657;45.940;12.840;2022-10-04T15:30:26;20.50;64.30
19050;DHT22;9657;45.940;12.840;2022-10-04T15:33:19;20.50;64.30
19050;DHT22;9657;45.940;12.840;2022-10-04T15:38:47;20.50;64.20
19050;DHT22;9657;45.940;12.840;2022-10-04T15:41:24;20.50;64.30
19050;DHT22;9657;45.940;12.840;2022-10-04T15:44:13;20.50;64.30
19050;DHT22;9657;45.940;12.840;2022-10-04T15:46:47;20.50;64.30
19050;DHT22;9657;45.940;12.840;2022-10-04T15:52:17;20.50;64.30
19050;DHT22;9657;45.940;12.840;2022-10-04T15:55:16;20.50;64.30
19050;DHT22;9657;45.940;12.840;2022-10-04T16:01:05;20.50;64.40
19050;DHT22;9657;45.940;12.840;2022-10-04T16:03:44;20.50;64.30
19050;DHT22;9657;45.940;12.840;2022-10-04T16:06:20;20.50;64.30
19050;DHT22;9657;45.940;12.840;2022-10-04T16:09:00;20.50;64.30
19050;DHT22;9657;45.940;12.840;2022-10-04T16:11:49;20.50;64.40
19050;DHT22;9657;45.940;12.840;2022-10-04T16:17:42;20.50;64.40
19050;DHT22;9657;45.940;12.840;2022-10-04T16:20:31;20.50;64.40
19050;DHT22;9657;45.940;12.840;2022-10-04T16:23:27;20.50;64.40
19050;DHT22;9657;45.940;12.840;2022-10-04T16:25:55;20.50;64.40
19050;DHT22;9657;45.940;12.840;2022-10-04T16:34:27;20.50;64.40
19050;DHT22;9657;45.940;12.840;2022-10-04T16:37:03;20.50;64.40
19050;DHT22;9657;45.940;12.840;2022-10-04T16:39:47;20.50;64.40
19050;DHT22;9657;45.940;12.840;2022-10-04T16:42:28;20.50;64.40
19050;DHT22;9657;45.940;12.840;2022-10-04T16:45:23;20.50;64.40
19050;DHT22;9657;45.940;12.840;2022-10-04T16:47:52;20.50;64.40
19050;DHT22;9657;45.940;12.840;2022-10-04T16:50:52;20.50;64.50
19050;DHT22;9657;45.940;12.840;2022-10-04T16:53:31;20.50;64.50
19050;DHT22;9657;45.940;12.840;2022-10-04T16:56:09;20.50;64.50
19050;DHT22;9657;45.940;12.840;2022-10-04T16:58:49;20.50;64.50
19050;DHT22;9657;45.940;12.840;2022-10-04T17:01:31;20.50;64.50
19050;DHT22;9657;45.940;12.840;2022-10-04T17:04:19;20.50;64.50
19050;DHT22;9657;45.940;12.840;2022-10-04T17:06:55;20.50;64.50
19050;DHT22;9657;45.940;12.840;2022-10-04T17:09:28;20.50;64.60
19050;DHT22;9657;45.940;12.840;2022-10-04T17:12:14;20.50;64.60
19050;DHT22;9657;45.940;12.840;2022-10-04T17:14:56;20.50;64.60
19050;DHT22;9657;45.940;12.840;2022-10-04T17:17:45;20.50;64.60
19050;DHT22;9657;45.940;12.840;2022-10-04T17:20:24;20.50;64.60
19050;DHT22;9657;45.940;12.840;2022-10-04T17:23:09;20.50;64.60
19050;DHT22;9657;45.940;12.840;2022-10-04T17:25:45;20.50;64.70
19050;DHT22;9657;45.940;12.840;2022-10-04T17:28:27;20.50;64.70
19050;DHT22;9657;45.940;12.840;2022-10-04T17:31:00;20.50;64.70
19050;DHT22;9657;45.940;12.840;2022-10-04T17:33:47;20.50;64.80
19050;DHT22;9657;45.940;12.840;2022-10-04T17:36:27;20.50;64.80
19050;DHT22;9657;45.940;12.840;2022-10-04T17:42:06;20.50;64.80
19050;DHT22;9657;45.940;12.840;2022-10-04T17:44:54;20.50;65.60
19050;DHT22;9657;45.940;12.840;2022-10-04T17:47:27;20.50;64.90
19050;DHT22;9657;45.940;12.840;2022-10-04T17:50:23;20.50;64.90
19050;DHT22;9657;45.940;12.840;2022-10-04T17:53:16;20.50;64.90
19050;DHT22;9657;45.940;12.840;2022-10-04T17:56:05;20.50;64.90
19050;DHT22;9657;45.940;12.840;2022-10-04T17:58:41;20.50;64.90
19050;DHT22;9657;45.940;12.840;2022-10-04T18:01:12;20.50;65.00
19050;DHT22;9657;45.940;12.840;2022-10-04T18:03:44;20.50;64.90
19050;DHT22;9657;45.940;12.840;2022-10-04T18:06:24;20.50;65.00
19050;DHT22;9657;45.940;12.840;2022-10-04T18:08:54;20.50;65.00
19050;DHT22;9657;45.940;12.840;2022-10-04T18:11:29;20.50;65.00
19050;DHT22;9657;45.940;12.840;2022-10-04T18:14:04;20.50;65.00
19050;DHT22;9657;45.940;12.840;2022-10-04T18:16:44;20.50;65.00
19050;DHT22;9657;45.940;12.840;2022-10-04T18:19:33;20.50;65.00
19050;DHT22;9657;45.940;12.840;2022-10-04T18:22:09;20.40;65.00
19050;DHT22;9657;45.940;12.840;2022-10-04T18:24:37;20.50;65.00
19050;DHT22;9657;45.940;12.840;2022-10-04T18:27:15;20.50;65.10
19050;DHT22;9657;45.940;12.840;2022-10-04T18:29:57;20.50;65.10
19050;DHT22;9657;45.940;12.840;2022-10-04T18:32:33;20.50;65.10
19050;DHT22;9657;45.940;12.840;2022-10-04T18:35:01;20.50;65.90
19050;DHT22;9657;45.940;12.840;2022-10-04T18:37:43;20.50;65.10
19050;DHT22;9657;45.940;12.840;2022-10-04T18:40:16;20.50;65.10
19050;DHT22;9657;45.940;12.840;2022-10-04T18:42:49;20.40;65.10
19050;DHT22;9657;45.940;12.840;2022-10-04T18:45:21;20.50;65.10
19050;DHT22;9657;45.940;12.840;2022-10-04T18:47:50;20.50;65.10
19050;DHT22;9657;45.940;12.840;2022-10-04T18:50:34;20.40;65.10
19050;DHT22;9657;45.940;12.840;2022-10-04T18:53:28;20.40;65.10
19050;DHT22;9657;45.940;12.840;2022-10-04T18:56:04;20.50;65.20
19050;DHT22;9657;45.940;12.840;2022-10-04T18:58:43;20.40;65.10
19050;DHT22;9657;45.940;12.840;2022-10-04T19:01:48;20.50;65.10
19050;DHT22;9657;45.940;12.840;2022-10-04T19:04:36;20.50;65.10
19050;DHT22;9657;45.940;12.840;2022-10-04T19:07:10;20.50;65.20
19050;DHT22;9657;45.940;12.840;2022-10-04T19:12:53;20.50;65.20
19050;DHT22;9657;45.940;12.840;2022-10-04T19:15:45;20.50;65.20
19050;DHT22;9657;45.940;12.840;2022-10-04T19:18:27;20.40;65.10
19050;DHT22;9657;45.940;12.840;2022-10-04T19:21:02;20.40;65.10
19050;DHT22;9657;45.940;12.840;2022-10-04T19:23:37;20.40;65.20
19050;DHT22;9657;45.940;12.840;2022-10-04T19:26:10;20.40;65.10
19050;DHT22;9657;45.940;12.840;2022-10-04T19:28:38;20.40;65.20
19050;DHT22;9657;45.940;12.840;2022-10-04T19:31:13;20.40;65.10
19050;DHT22;9657;45.940;12.840;2022-10-04T19:33:46;20.40;65.20
19050;DHT22;9657;45.940;12.840;2022-10-04T19:36:32;20.40;65.20
19050;DHT22;9657;45.940;12.840;2022-10-04T19:39:17;20.40;65.30
19050;DHT22;9657;45.940;12.840;2022-10-04T19:41:54;20.40;65.20
19050;DHT22;9657;45.940;12.840;2022-10-04T19:44:43;20.40;65.30
19050;DHT22;9657;45.940;12.840;2022-10-04T19:47:27;20.40;65.30
19050;DHT22;9657;45.940;12.840;2022-10-04T19:50:03;20.40;65.30
19050;DHT22;9657;45.940;12.840;2022-10-04T19:52:36;20.40;65.30
19050;DHT22;9657;45.940;12.840;2022-10-04T19:55:17;20.40;65.30
19050;DHT22;9657;45.940;12.840;2022-10-04T19:57:49;20.40;65.30
19050;DHT22;9657;45.940;12.840;2022-10-04T20:00:16;20.40;65.30
19050;DHT22;9657;45.940;12.840;2022-10-04T20:02:45;20.40;65.30
19050;DHT22;9657;45.940;12.840;2022-10-04T20:05:16;20.40;65.30
19050;DHT22;9657;45.940;12.840;2022-10-04T20:07:48;20.40;65.30
19050;DHT22;9657;45.940;12.840;2022-10-04T20:10:27;20.40;65.30
19050;DHT22;9657;45.940;12.840;2022-10-04T20:13:20;20.40;65.30
19050;DHT22;9657;45.940;12.840;2022-10-04T20:15:55;20.40;65.30
19050;DHT22;9657;45.940;12.840;2022-10-04T20:21:31;20.40;65.40
19050;DHT22;9657;45.940;12.840;2022-10-04T20:23:58;20.40;65.40
19050;DHT22;9657;45.940;12.840;2022-10-04T20:26:43;20.40;65.40
19050;DHT22;9657;45.940;12.840;2022-10-04T20:32:53;20.40;65.40
19050;DHT22;9657;45.940;12.840;2022-10-04T20:38:55;20.40;65.40
19050;DHT22;9657;45.940;12.840;2022-10-04T20:42:06;20.40;65.40
19050;DHT22;9657;45.940;12.840;2022-10-04T20:44:52;20.40;65.40
19050;DHT22;9657;45.940;12.840;2022-10-04T20:47:36;20.40;65.40
19050;DHT22;9657;45.940;12.840;2022-10-04T20:50:13;20.40;65.50
19050;DHT22;9657;45.940;12.840;2022-10-04T20:52:45;20.40;65.40
19050;DHT22;9657;45.940;12.840;2022-10-04T20:55:21;20.40;65.50
19050;DHT22;9657;45.940;12.840;2022-10-04T20:57:49;20.40;65.50
19050;DHT22;9657;45.940;12.840;2022-10-04T21:00:19;20.40;65.50
19050;DHT22;9657;45.940;12.840;2022-10-04T21:02:46;20.40;65.50
19050;DHT22;9657;45.940;12.840;2022-10-04T21:05:16;20.40;65.50
19050;DHT22;9657;45.940;12.840;2022-10-04T21:07:48;20.40;65.50
19050;DHT22;9657;45.940;12.840;2022-10-04T21:10:18;20.40;65.50
19050;DHT22;9657;45.940;12.840;2022-10-04T21:12:45;20.40;65.60
19050;DHT22;9657;45.940;12.840;2022-10-04T21:15:19;20.40;65.50
19050;DHT22;9657;45.940;12.840;2022-10-04T21:18:01;20.40;65.50
19050;DHT22;9657;45.940;12.840;2022-10-04T21:20:42;20.40;65.50
19050;DHT22;9657;45.940;12.840;2022-10-04T21:23:16;20.40;65.50
19050;DHT22;9657;45.940;12.840;2022-10-04T21:25:47;20.40;65.60
19050;DHT22;9657;45.940;12.840;2022-10-04T21:28:31;20.40;65.80
19050;DHT22;9657;45.940;12.840;2022-10-04T21:31:02;20.40;65.60
19050;DHT22;9657;45.940;12.840;2022-10-04T21:33:33;20.40;65.50
19050;DHT22;9657;45.940;12.840;2022-10-04T21:36:01;20.40;65.50
19050;DHT22;9657;45.940;12.840;2022-10-04T21:38:28;20.40;65.50
19050;DHT22;9657;45.940;12.840;2022-10-04T21:40:57;20.40;65.50
19050;DHT22;9657;45.940;12.840;2022-10-04T21:43:24;20.40;66.00
19050;DHT22;9657;45.940;12.840;2022-10-04T21:45:51;20.30;65.50
19050;DHT22;9657;45.940;12.840;2022-10-04T21:48:18;20.40;65.50
19050;DHT22;9657;45.940;12.840;2022-10-04T21:50:48;20.30;65.50
19050;DHT22;9657;45.940;12.840;2022-10-04T21:53:16;20.30;65.50
19050;DHT22;9657;45.940;12.840;2022-10-04T21:55:43;20.30;65.50
19050;DHT22;9657;45.940;12.840;2022-10-04T21:58:12;20.30;65.50
19050;DHT22;9657;45.940;12.840;2022-10-04T22:00:39;20.40;65.50
19050;DHT22;9657;45.940;12.840;2022-10-04T22:03:06;20.30;65.50
19050;DHT22;9657;45.940;12.840;2022-10-04T22:05:33;20.30;65.50
19050;DHT22;9657;45.940;12.840;2022-10-04T22:08:00;20.40;65.50
19050;DHT22;9657;45.940;12.840;2022-10-04T22:10:27;20.30;65.50
19050;DHT22;9657;45.940;12.840;2022-10-04T22:12:54;20.30;65.50
19050;DHT22;9657;45.940;12.840;2022-10-04T22:15:27;20.30;65.60
19050;DHT22;9657;45.940;12.840;2022-10-04T22:17:54;20.30;65.60
19050;DHT22;9657;45.940;12.840;2022-10-04T22:20:22;20.30;65.60
19050;DHT22;9657;45.940;12.840;2022-10-04T22:22:49;20.30;65.70
19050;DHT22;9657;45.940;12.840;2022-10-04T22:25:18;20.30;65.80
19050;DHT22;9657;45.940;12.840;2022-10-04T22:27:46;20.30;65.80
19050;DHT22;9657;45.940;12.840;2022-10-04T22:30:19;20.40;65.80
19050;DHT22;9657;45.940;12.840;2022-10-04T22:32:48;20.30;65.80
19050;DHT22;9657;45.940;12.840;2022-10-04T22:35:17;20.30;65.80
19050;DHT22;9657;45.940;12.840;2022-10-04T22:37:45;20.30;65.80
19050;DHT22;9657;45.940;12.840;2022-10-04T22:40:16;20.30;65.80
19050;DHT22;9657;45.940;12.840;2022-10-04T22:42:43;20.30;65.80
19050;DHT22;9657;45.940;12.840;2022-10-04T22:45:21;20.30;65.80
19050;DHT22;9657;45.940;12.840;2022-10-04T22:47:51;20.30;65.80
19050;DHT22;9657;45.940;12.840;2022-10-04T22:50:27;20.30;65.80
19050;DHT22;9657;45.940;12.840;2022-10-04T22:52:54;20.30;65.80
19050;DHT22;9657;45.940;12.840;2022-10-04T22:55:22;20.30;65.80
19050;DHT22;9657;45.940;12.840;2022-10-04T22:57:49;20.30;65.80
19050;DHT22;9657;45.940;12.840;2022-10-04T23:00:16;20.30;65.80
19050;DHT22;9657;45.940;12.840;2022-10-04T23:02:43;20.30;65.80
19050;DHT22;9657;45.940;12.840;2022-10-04T23:05:13;20.30;65.80
19050;DHT22;9657;45.940;12.840;2022-10-04T23:07:41;20.30;65.80
19050;DHT22;9657;45.940;12.840;2022-10-04T23:10:09;20.30;65.80
19050;DHT22;9657;45.940;12.840;2022-10-04T23:12:37;20.30;65.80
19050;DHT22;9657;45.940;12.840;2022-10-04T23:15:06;20.30;65.80
19050;DHT22;9657;45.940;12.840;2022-10-04T23:17:35;20.30;65.80
19050;DHT22;9657;45.940;12.840;2022-10-04T23:20:10;20.30;65.80
19050;DHT22;9657;45.940;12.840;2022-10-04T23:22:42;20.30;65.80
19050;DHT22;9657;45.940;12.840;2022-10-04T23:25:15;20.30;65.80
19050;DHT22;9657;45.940;12.840;2022-10-04T23:27:43;20.30;65.80
19050;DHT22;9657;45.940;12.840;2022-10-04T23:30:13;20.30;65.80
19050;DHT22;9657;45.940;12.840;2022-10-04T23:32:43;20.30;65.80
19050;DHT22;9657;45.940;12.840;2022-10-04T23:35:17;20.30;65.80
19050;DHT22;9657;45.940;12.840;2022-10-04T23:37:46;20.30;65.80
19050;DHT22;9657;45.940;12.840;2022-10-04T23:40:15;20.30;65.80
19050;DHT22;9657;45.940;12.840;2022-10-04T23:42:45;20.30;65.80
19050;DHT22;9657;45.940;12.840;2022-10-04T23:45:18;20.30;65.80
19050;DHT22;9657;45.940;12.840;2022-10-04T23:47:46;20.30;65.80
19050;DHT22;9657;45.940;12.840;2022-10-04T23:50:20;20.30;65.80
19050;DHT22;9657;45.940;12.840;2022-10-04T23:52:49;20.30;65.80
19050;DHT22;9657;45.940;12.840;2022-10-04T23:55:19;20.30;65.80
19050;DHT22;9657;45.940;12.840;2022-10-04T23:57:48;20.30;65.80
